Time;durP1;ratioP1;P1;durP2;ratioP2;P2;SDS_P1;SDS_P2;PMS_P1;PMS_P2;Temp;Humidity;BMP_temperature;BMP_pressure;BME280_temperature;BME280_humidity;BME280_pressure;Samples;Min_cycle;Max_cycle;Signal;HPM_P1;HPM_P2
2024/02/04 00:00:32;;;;;;;2.80;2.60;;;8.00;92.20;;;7.31;93.09;98782.44;5068390;28;20471;-78
2024/02/04 00:03:00;;;;;;;3.20;2.70;;;8.00;92.00;;;7.34;92.77;98782.91;5070976;28;20467;-73
2024/02/04 00:05:27;;;;;;;2.50;2.30;;;8.00;91.90;;;7.43;93.03;98780.19;5080158;28;20458;-75
2024/02/04 00:07:54;;;;;;;2.70;2.47;;;8.10;91.80;;;7.35;92.58;98775.69;5058704;28;20459;-76
2024/02/04 00:10:23;;;;;;;2.37;2.17;;;8.00;91.60;;;7.37;92.78;98790.66;5071603;28;20544;-76
2024/02/04 00:12:50;;;;;;;2.23;2.10;;;8.00;91.70;;;7.34;92.85;98795.53;5068536;28;20542;-78
2024/02/04 00:15:18;;;;;;;2.53;2.33;;;8.00;91.80;;;7.19;93.49;98790.03;5076667;28;20447;-75
2024/02/04 00:17:46;;;;;;;2.40;2.20;;;7.90;91.80;;;7.04;94.88;98790.78;5063776;28;20465;-77
2024/02/04 00:20:13;;;;;;;1.90;1.80;;;7.90;91.90;;;7.27;93.51;98792.72;5068758;28;20554;-77
2024/02/04 00:22:41;;;;;;;2.20;2.00;;;8.00;91.90;;;7.20;93.81;98805.16;5055966;28;20481;-76
2024/02/04 00:25:11;;;;;;;5.40;2.37;;;7.90;91.80;;;7.26;93.24;98790.19;5062851;28;20464;-78
2024/02/04 00:27:40;;;;;;;2.10;1.90;;;8.00;91.70;;;7.12;93.32;98770.28;5062633;28;20471;-78
2024/02/04 00:30:09;;;;;;;2.97;2.20;;;8.00;91.70;;;7.28;93.12;98775.56;5063372;28;20453;-77
2024/02/04 00:32:36;;;;;;;1.90;1.80;;;8.00;91.70;;;7.37;91.86;98770.97;5078938;28;20996;-80
2024/02/04 00:35:03;;;;;;;1.77;1.60;;;8.00;91.50;;;7.43;91.55;98772.97;5059893;28;20463;-76
2024/02/04 00:37:30;;;;;;;2.20;1.63;;;8.10;91.40;;;7.39;91.91;98781.56;5084122;28;20448;-73
2024/02/04 00:39:58;;;;;;;1.93;1.60;;;8.00;91.40;;;7.41;91.79;98771.47;5066280;28;20485;-79
2024/02/04 00:42:25;;;;;;;1.70;1.60;;;8.00;91.40;;;7.45;91.81;98775.47;5066199;28;20440;-76
2024/02/04 00:44:54;;;;;;;2.27;1.90;;;8.10;91.20;;;7.44;91.29;98782.72;5080041;28;20886;-78
2024/02/04 00:47:21;;;;;;;1.80;1.70;;;8.10;91.10;;;7.42;91.01;98773.16;5069170;28;20461;-76
2024/02/04 00:49:49;;;;;;;2.10;1.60;;;8.10;91.00;;;7.39;91.33;98768.13;5068643;28;20460;-79
2024/02/04 00:52:16;;;;;;;2.73;1.93;;;8.10;91.10;;;7.31;92.47;98777.06;5056079;28;20916;-77
2024/02/04 00:54:43;;;;;;;2.00;1.83;;;8.00;91.30;;;7.22;92.57;98768.22;5064979;28;20472;-78
2024/02/04 00:57:11;;;;;;;4.20;1.80;;;8.00;91.50;;;7.25;93.42;98778.59;5069203;28;20822;-77
2024/02/04 00:59:38;;;;;;;2.03;1.93;;;7.90;91.70;;;7.35;92.24;98773.88;5063748;28;20473;-74
2024/02/04 01:02:07;;;;;;;3.33;1.63;;;8.00;91.80;;;7.37;92.44;98765.59;5063448;28;20471;-74
2024/02/04 01:04:34;;;;;;;1.87;1.77;;;8.00;91.80;;;7.33;92.75;98770.50;5063351;28;20443;-74
2024/02/04 01:07:01;;;;;;;1.63;1.53;;;8.00;91.70;;;7.32;92.85;98763.44;5061019;28;20539;-77
2024/02/04 01:09:29;;;;;;;1.63;1.53;;;8.00;91.80;;;7.37;93.02;98763.78;5066425;28;20454;-76
2024/02/04 01:11:56;;;;;;;1.73;1.63;;;8.00;91.90;;;7.40;92.53;98772.50;5059688;28;20461;-72
2024/02/04 01:14:23;;;;;;;2.50;1.70;;;8.00;92.00;;;7.33;93.00;98770.50;5061873;28;20462;-79
2024/02/04 01:16:51;;;;;;;3.33;1.97;;;8.00;91.90;;;7.33;93.13;98783.09;5058897;28;20463;-76
2024/02/04 01:19:19;;;;;;;2.20;2.00;;;8.00;92.10;;;7.36;93.24;98780.06;5058973;28;20472;-77
2024/02/04 01:21:46;;;;;;;1.97;1.60;;;7.90;92.10;;;7.25;93.63;98769.69;5061901;28;20456;-77
2024/02/04 01:24:13;;;;;;;1.70;1.47;;;7.90;92.20;;;7.26;93.71;98760.63;5065282;28;20468;-77
2024/02/04 01:26:41;;;;;;;1.50;1.40;;;7.90;92.10;;;7.22;93.81;98773.59;5064053;28;20895;-76
2024/02/04 01:29:08;;;;;;;2.37;1.93;;;7.90;92.30;;;7.20;94.32;98760.31;5065766;28;20454;-77
2024/02/04 01:31:35;;;;;;;2.67;1.73;;;7.90;92.40;;;7.24;94.00;98760.81;5065313;28;20464;-76
2024/02/04 01:34:02;;;;;;;1.50;1.40;;;7.90;92.40;;;7.17;94.00;98759.81;5064697;28;20464;-75
2024/02/04 01:36:31;;;;;;;1.67;1.57;;;7.90;92.20;;;6.78;94.22;98697.88;5064711;28;21323;-75
2024/02/04 01:38:58;;;;;;;1.70;1.60;;;7.90;92.30;;;7.16;94.70;98731.28;5079019;28;21007;-74
2024/02/04 01:41:27;;;;;;;1.73;1.63;;;7.90;92.60;;;7.16;95.39;98747.41;5057140;28;20463;-75
2024/02/04 01:43:54;;;;;;;2.27;2.10;;;7.90;93.00;;;7.11;95.85;98729.09;5062379;28;20459;-75
2024/02/04 01:46:22;;;;;;;1.60;1.50;;;7.80;93.20;;;7.09;96.08;98737.38;5062857;28;20481;-77
2024/02/04 01:48:49;;;;;;;2.30;2.00;;;7.80;93.70;;;7.16;95.99;98740.19;5073343;28;20553;-73
2024/02/04 01:51:20;;;;;;;1.70;1.60;;;7.80;93.70;;;7.18;96.25;98735.47;5060014;28;20452;-77
2024/02/04 01:53:50;;;;;;;1.60;1.50;;;7.80;93.60;;;7.07;96.29;98734.00;5069290;28;20453;-74
2024/02/04 01:56:18;;;;;;;1.67;1.57;;;7.80;93.20;;;7.15;96.55;98732.28;5057264;28;20456;-73
2024/02/04 01:58:48;;;;;;;1.90;1.80;;;7.80;93.60;;;7.12;95.48;98724.59;5065149;28;20467;-74
2024/02/04 02:01:16;;;;;;;1.50;1.40;;;7.80;93.50;;;7.15;96.43;98745.72;5056654;28;20445;-75
2024/02/04 02:03:43;;;;;;;1.87;1.77;;;7.80;93.50;;;7.18;95.91;98729.25;5077769;28;20867;-75
2024/02/04 02:06:11;;;;;;;1.97;1.77;;;7.90;93.60;;;7.16;96.38;98736.66;5062459;28;20452;-74
2024/02/04 02:08:41;;;;;;;1.67;1.57;;;7.80;93.60;;;7.14;95.95;98736.00;5059751;28;20827;-79
2024/02/04 02:11:19;;;;;;;2.07;1.87;;;7.90;93.70;;;7.16;96.65;98742.03;5076489;28;20437;-77
2024/02/04 02:13:53;;;;;;;1.80;1.70;;;7.80;93.70;;;6.99;96.72;98723.28;5067463;28;20456;-75
2024/02/04 02:16:23;;;;;;;1.40;1.30;;;7.80;94.10;;;7.22;96.36;98744.84;5069369;28;20475;-73
2024/02/04 02:18:57;;;;;;;2.67;1.80;;;7.80;94.00;;;7.12;96.38;98740.72;5065426;28;21079;-74
2024/02/04 02:21:42;;;;;;;1.50;1.40;;;7.80;93.50;;;7.26;95.82;98739.13;5061605;28;20454;-75
2024/02/04 02:24:17;;;;;;;1.90;1.70;;;7.90;93.60;;;7.22;95.68;98741.34;5066178;28;20460;-73
2024/02/04 02:26:46;;;;;;;1.63;1.53;;;7.90;93.20;;;7.16;95.29;98731.28;5058897;28;20453;-72
2024/02/04 02:29:13;;;;;;;1.60;1.50;;;7.90;93.20;;;7.19;96.12;98741.66;5064030;28;20514;-76
2024/02/04 02:31:42;;;;;;;1.90;1.77;;;7.90;93.50;;;6.98;96.00;98702.81;5064253;28;20467;-75
2024/02/04 02:34:10;;;;;;;1.90;1.70;;;7.90;93.50;;;7.26;95.25;98731.91;5082942;28;20444;-76
2024/02/04 02:36:51;;;;;;;1.30;1.20;;;7.90;93.60;;;7.29;95.34;98734.22;5061587;28;20481;-75
2024/02/04 02:39:25;;;;;;;1.53;1.40;;;7.90;93.20;;;7.24;95.48;98725.88;5068896;28;20478;-75
2024/02/04 02:41:58;;;;;;;1.20;1.10;;;7.90;93.00;;;7.23;95.50;98743.00;5062858;28;20567;-76
2024/02/04 02:44:27;;;;;;;1.70;1.60;;;7.90;93.00;;;7.12;95.92;98724.59;5063599;28;21019;-77
2024/02/04 02:46:55;;;;;;;1.50;1.40;;;7.90;93.20;;;7.28;95.44;98746.00;5063977;28;20475;-75
2024/02/04 02:49:23;;;;;;;1.90;1.70;;;7.90;93.30;;;7.37;94.83;98750.31;5063578;28;20503;-77
2024/02/04 02:51:50;;;;;;;3.30;1.70;;;8.00;93.20;;;7.33;95.07;98757.03;5057015;28;20476;-76
2024/02/04 02:54:17;;;;;;;2.00;1.80;;;8.00;93.10;;;7.18;95.15;98754.28;5063175;28;20460;-75
2024/02/04 02:56:44;;;;;;;1.83;1.63;;;7.90;92.90;;;7.11;95.88;98747.91;5066981;28;20509;-74
2024/02/04 02:59:13;;;;;;;2.00;1.83;;;7.90;93.10;;;7.26;95.08;98758.78;5075882;28;20470;-75
2024/02/04 03:01:41;;;;;;;1.80;1.70;;;7.90;93.30;;;7.27;95.36;98757.75;5058418;28;20453;-74
2024/02/04 03:04:08;;;;;;;2.13;1.93;;;7.90;93.20;;;7.27;95.39;98765.81;5063282;28;20464;-76
2024/02/04 03:06:36;;;;;;;2.10;1.90;;;7.90;93.20;;;7.25;95.59;98761.63;5077867;28;20456;-75
2024/02/04 03:09:03;;;;;;;2.10;1.83;;;7.90;93.20;;;7.27;95.04;98748.84;5063033;28;20842;-74
2024/02/04 03:11:30;;;;;;;1.80;1.70;;;7.90;93.40;;;7.29;95.01;98741.47;5062685;28;20453;-75
2024/02/04 03:13:56;;;;;;;2.93;1.60;;;7.90;93.20;;;7.37;94.93;98747.63;5063626;28;20964;-78
2024/02/04 03:16:25;;;;;;;2.13;1.93;;;7.90;93.10;;;7.40;94.87;98741.03;5076976;28;20457;-79
2024/02/04 03:18:54;;;;;;;2.03;1.90;;;8.00;93.20;;;7.50;93.48;98748.88;5058541;28;20460;-74
2024/02/04 03:21:21;;;;;;;2.07;1.87;;;8.00;92.90;;;7.47;94.29;98741.19;5071238;28;21020;-74
2024/02/04 03:23:48;;;;;;;2.10;1.90;;;8.00;92.80;;;7.23;95.28;98734.94;5071299;28;21778;-75
2024/02/04 03:26:19;;;;;;;1.97;1.80;;;8.00;92.90;;;7.37;94.93;98747.63;5064347;28;20464;-77
2024/02/04 03:28:47;;;;;;;1.97;1.87;;;8.00;93.10;;;7.34;94.81;98745.28;5051474;28;20457;-76
2024/02/04 03:31:21;;;;;;;2.30;1.83;;;7.90;93.00;;;7.31;94.35;98745.63;5063812;28;20448;-78
2024/02/04 03:33:51;;;;;;;2.57;2.37;;;8.00;92.90;;;7.03;94.75;98684.31;5059766;28;20460;-78
2024/02/04 03:36:23;;;;;;;1.73;1.63;;;8.00;92.90;;;7.34;94.58;98742.59;5068333;28;20451;-81
2024/02/04 03:38:50;;;;;;;2.60;2.30;;;8.00;92.90;;;7.27;94.09;98733.56;5062700;28;20465;-77
2024/02/04 03:41:17;;;;;;;2.17;2.00;;;8.00;92.60;;;7.35;94.00;98738.91;5053699;28;20485;-74
2024/02/04 03:43:46;;;;;;;2.30;2.10;;;8.00;92.90;;;7.39;94.33;98749.31;5056763;28;20449;-77
2024/02/04 03:46:15;;;;;;;2.73;2.23;;;8.00;92.70;;;7.45;93.74;98752.13;5063139;28;20442;-76
2024/02/04 03:48:42;;;;;;;3.70;2.60;;;8.00;92.70;;;7.46;93.51;98747.56;5059222;28;20535;-76
2024/02/04 03:51:17;;;;;;;2.50;2.30;;;8.00;92.50;;;6.88;93.64;98673.47;5065958;28;20457;-76
2024/02/04 03:53:44;;;;;;;3.07;2.60;;;8.00;92.50;;;7.26;94.84;98739.97;5067749;28;20992;-76
2024/02/04 03:56:11;;;;;;;2.23;1.80;;;8.00;92.60;;;7.24;94.15;98744.69;5063612;28;20468;-75
2024/02/04 03:58:38;;;;;;;2.30;2.10;;;8.00;92.60;;;7.31;94.49;98751.00;5060743;28;20471;-76
2024/02/04 04:01:05;;;;;;;2.30;2.10;;;7.90;92.90;;;7.27;94.96;98757.75;5077836;28;20477;-76
2024/02/04 04:03:33;;;;;;;2.67;2.47;;;7.90;92.60;;;7.22;95.17;98760.16;5062452;28;20441;-79
2024/02/04 04:06:00;;;;;;;2.10;1.90;;;7.90;92.90;;;7.38;93.86;98748.47;5057636;28;20521;-77
2024/02/04 04:08:28;;;;;;;2.33;2.10;;;8.00;92.70;;;7.26;94.46;98748.03;5063853;28;20811;-77
2024/02/04 04:10:56;;;;;;;3.30;2.50;;;8.00;92.70;;;7.27;94.96;98755.06;5065084;28;20868;-76
2024/02/04 04:13:23;;;;;;;2.77;2.53;;;7.90;93.10;;;7.31;94.46;98758.25;5063954;28;20460;-76
2024/02/04 04:15:52;;;;;;;3.07;2.87;;;7.90;93.10;;;7.29;94.92;98753.03;5058222;28;20465;-74
2024/02/04 04:18:19;;;;;;;2.70;2.17;;;7.90;93.10;;;7.20;95.87;98751.41;5064870;28;20445;-71
2024/02/04 04:20:46;;;;;;;2.40;2.20;;;7.90;93.20;;;6.94;94.76;98683.50;5061530;28;20476;-73
2024/02/04 04:23:14;;;;;;;3.93;2.73;;;7.90;93.30;;;7.25;95.76;98746.34;5061894;28;20465;-75
2024/02/04 04:25:42;;;;;;;2.80;2.60;;;7.90;93.20;;;7.16;96.08;98750.09;5064989;28;20461;-75
2024/02/04 04:28:10;;;;;;;2.43;2.23;;;7.80;93.70;;;7.14;96.66;98760.19;5068524;28;20510;-75
2024/02/04 04:30:37;;;;;;;3.80;2.50;;;7.80;93.60;;;7.33;95.52;98748.16;5064855;28;20453;-76
2024/02/04 04:33:06;;;;;;;2.47;2.03;;;7.80;94.10;;;7.28;95.60;98751.38;5059772;28;20459;-74
2024/02/04 04:35:33;;;;;;;2.50;2.30;;;7.90;94.00;;;7.32;95.58;98736.56;5064361;28;20444;-76
2024/02/04 04:38:01;;;;;;;2.97;2.67;;;7.90;93.70;;;7.21;95.83;98745.03;5057103;28;20516;-73
2024/02/04 04:40:28;;;;;;;2.13;1.93;;;7.90;93.80;;;7.20;95.95;98748.72;5061563;28;20476;-76
2024/02/04 04:42:57;;;;;;;3.27;2.60;;;7.90;93.80;;;7.14;97.63;98744.06;5064623;28;20483;-78
2024/02/04 04:45:24;;;;;;;3.73;2.63;;;7.80;94.00;;;7.20;96.85;98743.34;5066811;28;20461;-76
2024/02/04 04:47:52;;;;;;;2.20;2.00;;;7.80;94.20;;;7.16;97.12;98744.72;5064942;28;20464;-71
2024/02/04 04:50:19;;;;;;;2.50;2.10;;;7.80;94.30;;;7.03;97.77;98735.34;5059466;28;20498;-74
2024/02/04 04:52:47;;;;;;;2.87;2.20;;;7.80;94.60;;;7.08;98.48;98727.63;5065735;28;20441;-75
2024/02/04 04:55:14;;;;;;;2.20;2.00;;;7.80;94.80;;;7.12;97.96;98721.91;5060813;28;20812;-75
2024/02/04 04:57:41;;;;;;;2.30;2.10;;;7.70;94.90;;;7.03;99.09;98723.78;5084077;28;20454;-72
2024/02/04 05:00:13;;;;;;;2.10;2.00;;;7.70;95.50;;;7.07;99.07;98728.66;5070670;28;20472;-77
2024/02/04 05:02:42;;;;;;;2.30;1.70;;;7.70;95.80;;;7.04;99.22;98722.78;5064602;28;20968;-77
2024/02/04 05:05:11;;;;;;;1.83;1.70;;;7.70;95.90;;;6.85;99.27;98713.28;5067156;28;20440;-75
2024/02/04 05:07:38;;;;;;;1.77;1.67;;;7.60;95.10;;;7.00;99.21;98724.97;5062772;28;20469;-76
2024/02/04 05:10:07;;;;;;;1.70;1.60;;;7.60;95.70;;;7.04;98.32;98723.59;5075354;28;20931;-74
2024/02/04 05:12:37;;;;;;;1.50;1.40;;;7.70;95.20;;;6.87;99.34;98722.00;5068221;28;20456;-77
2024/02/04 05:15:05;;;;;;;1.60;1.50;;;7.60;95.10;;;6.79;99.87;98707.59;5065999;28;20484;-72
2024/02/04 05:17:35;;;;;;;1.83;1.63;;;7.60;95.60;;;6.85;100.00;98724.03;5060007;28;20455;-77
2024/02/04 05:20:04;;;;;;;1.40;1.30;;;7.50;96.00;;;6.99;99.27;98731.34;5082942;28;20450;-76
2024/02/04 05:22:31;;;;;;;1.50;1.40;;;7.60;95.90;;;6.96;99.10;98729.03;5068984;28;20532;-77
2024/02/04 05:24:59;;;;;;;1.70;1.60;;;7.60;95.70;;;6.81;99.78;98712.78;5066608;28;20456;-76
2024/02/04 05:27:26;;;;;;;1.47;1.37;;;7.60;95.70;;;6.86;99.91;98712.25;5065188;28;20483;-74
2024/02/04 05:29:53;;;;;;;1.90;1.40;;;7.60;96.10;;;6.82;100.00;98719.00;5068853;28;20448;-78
2024/02/04 05:32:20;;;;;;;1.87;1.73;;;7.50;96.40;;;6.83;100.00;98709.94;5067683;28;20460;-78
2024/02/04 05:34:49;;;;;;;2.40;1.47;;;7.50;97.10;;;6.92;100.00;98714.28;5054089;28;20599;-77
2024/02/04 05:37:17;;;;;;;1.97;1.10;;;7.50;96.90;;;6.77;100.00;98712.31;5068511;28;20488;-77
2024/02/04 05:39:44;;;;;;;1.30;1.10;;;7.50;96.60;;;6.71;100.00;98713.00;5069289;28;20492;-79
2024/02/04 05:42:11;;;;;;;1.30;1.20;;;7.40;96.50;;;6.47;100.00;98653.00;5084912;28;20475;-76
2024/02/04 05:44:38;;;;;;;1.10;1.00;;;7.40;97.20;;;6.84;100.00;98715.16;5069926;28;20457;-77
2024/02/04 05:47:06;;;;;;;1.60;1.50;;;7.40;97.50;;;6.73;100.00;98710.97;5084847;28;20487;-76
2024/02/04 05:49:33;;;;;;;1.93;1.53;;;7.40;97.30;;;6.82;100.00;98713.63;5066100;28;20452;-76
2024/02/04 05:52:03;;;;;;;0.93;0.70;;;7.40;97.30;;;6.84;100.00;98725.88;5067728;28;20472;-76
2024/02/04 05:54:30;;;;;;;3.77;0.80;;;7.40;97.00;;;6.81;100.00;98712.78;5061561;28;20481;-76
2024/02/04 05:56:58;;;;;;;1.30;0.80;;;7.50;96.90;;;6.91;99.82;98713.41;5060482;28;20456;-77
2024/02/04 05:59:25;;;;;;;1.30;0.77;;;7.50;96.60;;;6.73;100.00;98702.91;5064515;28;20448;-76
2024/02/04 06:01:53;;;;;;;1.80;0.93;;;7.50;95.80;;;6.75;100.00;98714.34;5064797;28;20472;-73
2024/02/04 06:04:20;;;;;;;2.10;0.80;;;7.50;96.00;;;6.35;100.00;98649.03;5082533;28;20467;-75
2024/02/04 06:06:48;;;;;;;0.80;0.80;;;7.40;96.40;;;6.78;100.00;98724.72;5083065;28;20457;-77
2024/02/04 06:09:17;;;;;;;0.73;0.73;;;7.40;96.70;;;6.78;100.00;98708.63;5061477;28;21038;-76
2024/02/04 06:11:46;;;;;;;0.70;0.70;;;7.40;96.70;;;6.75;100.00;98703.59;5063726;28;20457;-75
2024/02/04 06:14:14;;;;;;;0.60;0.60;;;7.40;97.20;;;6.69;100.00;98696.22;5063753;28;20515;-76
2024/02/04 06:16:41;;;;;;;0.60;0.40;;;7.40;97.90;;;6.70;100.00;98697.06;5083095;28;20538;-77
2024/02/04 06:19:12;;;;;;;0.60;0.60;;;7.40;98.40;;;6.65;100.00;98689.53;5066951;28;20457;-75
2024/02/04 06:21:40;;;;;;;1.00;1.00;;;7.40;98.40;;;6.60;100.00;98703.47;5063788;28;20900;-75
2024/02/04 06:24:07;;;;;;;0.73;0.73;;;7.30;99.10;;;6.64;100.00;98690.53;5066109;28;20488;-75
2024/02/04 06:26:39;;;;;;;3.70;0.80;;;7.30;99.90;;;6.57;100.00;98695.75;5060383;28;20489;-75
2024/02/04 06:29:09;;;;;;;1.10;0.90;;;7.20;99.90;;;6.47;100.00;98698.66;5076498;28;20973;-77
2024/02/04 06:31:37;;;;;;;0.50;0.50;;;7.20;99.90;;;6.60;100.00;98687.34;5061413;28;20587;-75
2024/02/04 06:34:04;;;;;;;1.47;1.10;;;7.30;99.90;;;6.68;100.00;98697.22;5063756;28;20464;-79
2024/02/04 06:36:31;;;;;;;1.00;0.77;;;7.40;99.90;;;6.74;100.00;98696.53;5065104;28;20460;-73
2024/02/04 06:38:59;;;;;;;0.83;0.73;;;7.30;99.90;;;6.87;100.00;98695.13;5063006;28;20460;-75
2024/02/04 06:41:26;;;;;;;0.80;0.67;;;7.50;99.20;;;6.85;100.00;98698.00;5067067;28;20542;-77
2024/02/04 06:43:55;;;;;;;0.93;0.87;;;7.50;97.90;;;6.86;100.00;98710.44;5067530;28;20498;-74
2024/02/04 06:46:26;;;;;;;1.80;1.30;;;7.60;97.60;;;6.79;100.00;98709.44;5076012;28;20460;-75
2024/02/04 06:48:54;;;;;;;0.87;0.87;;;7.50;96.30;;;6.75;100.00;98714.34;5076590;28;20467;-73
2024/02/04 06:51:21;;;;;;;0.70;0.70;;;7.50;95.90;;;6.82;99.47;98719.00;5065099;28;20471;-78
2024/02/04 06:53:49;;;;;;;0.60;0.53;;;7.50;95.40;;;6.90;98.69;98727.00;5063414;28;20446;-76
2024/02/04 06:56:16;;;;;;;3.23;0.63;;;7.60;95.00;;;6.87;99.06;98727.38;5066127;28;20455;-75
2024/02/04 06:58:44;;;;;;;0.70;0.70;;;7.60;94.70;;;6.89;98.75;98719.97;5077020;28;20469;-74
2024/02/04 07:01:13;;;;;;;0.77;0.73;;;7.60;94.80;;;6.90;98.33;98716.28;5070076;28;20698;-76
2024/02/04 07:03:40;;;;;;;1.40;0.73;;;7.60;94.70;;;7.00;98.22;98708.84;5074196;28;21062;-75
2024/02/04 07:06:08;;;;;;;1.27;0.60;;;7.60;94.80;;;6.99;97.70;98714.41;5089737;28;20485;-75
2024/02/04 07:08:35;;;;;;;0.60;0.60;;;7.70;94.40;;;6.88;97.02;98705.72;5066439;28;20517;-75
2024/02/04 07:11:04;;;;;;;0.90;0.77;;;7.70;94.10;;;7.09;97.22;98720.38;5070030;28;20456;-76
2024/02/04 07:13:32;;;;;;;0.90;0.80;;;7.70;94.10;;;7.05;96.54;98730.66;5058668;28;20444;-73
2024/02/04 07:16:00;;;;;;;0.50;0.50;;;7.70;93.50;;;7.11;96.18;98718.34;5061295;28;20452;-73
2024/02/04 07:18:29;;;;;;;1.47;0.70;;;7.80;93.50;;;7.09;96.41;98725.75;5067824;28;20987;-73
2024/02/04 07:20:57;;;;;;;1.10;0.90;;;7.80;93.30;;;7.14;96.01;98722.56;5064720;28;20845;-72
2024/02/04 07:23:25;;;;;;;1.23;0.60;;;7.80;93.20;;;7.15;95.99;98719.69;5070145;28;20493;-72
2024/02/04 07:25:52;;;;;;;0.77;0.77;;;7.80;93.10;;;7.10;95.11;98705.94;5074130;28;20527;-74
2024/02/04 07:28:20;;;;;;;1.57;0.80;;;7.80;92.70;;;7.23;94.35;98694.63;5059670;28;20445;-71
2024/02/04 07:30:48;;;;;;;0.77;0.53;;;7.90;92.50;;;7.30;94.28;98694.75;5062900;28;20514;-73
2024/02/04 07:33:16;;;;;;;0.70;0.70;;;8.00;92.40;;;7.43;93.23;98691.47;5057477;28;20829;-72
2024/02/04 07:35:44;;;;;;;0.60;0.50;;;8.00;92.00;;;7.48;92.84;98684.53;5064593;28;20476;-71
2024/02/04 07:38:14;;;;;;;0.60;0.50;;;8.10;91.70;;;7.47;92.08;98684.72;5078300;28;20457;-75
2024/02/04 07:40:46;;;;;;;0.60;0.53;;;8.20;91.40;;;7.69;91.48;98692.97;5064952;28;20476;-72
2024/02/04 07:43:15;;;;;;;0.60;0.60;;;8.30;91.40;;;7.59;91.63;98685.97;5065015;28;20461;-78
2024/02/04 07:45:43;;;;;;;1.00;0.63;;;8.30;91.30;;;7.73;91.20;98700.47;5066348;28;20502;-70
2024/02/04 07:48:10;;;;;;;0.50;0.50;;;8.40;91.00;;;7.65;91.15;98704.06;5062448;28;20544;-71
2024/02/04 07:50:38;;;;;;;0.70;0.50;;;8.30;90.90;;;7.62;91.36;98698.22;5062424;28;20488;-72
2024/02/04 07:53:07;;;;;;;0.50;0.50;;;8.30;90.90;;;7.59;91.50;98690.53;5056580;28;20498;-71
2024/02/04 07:55:35;;;;;;;1.90;0.57;;;8.30;91.10;;;7.63;91.15;98692.66;5071381;28;20440;-71
2024/02/04 07:58:02;;;;;;;1.30;0.40;;;8.30;90.90;;;7.62;91.15;98687.47;5058217;28;20465;-72
2024/02/04 08:00:29;;;;;;;0.70;0.43;;;8.30;90.80;;;7.71;91.08;98697.13;5078254;28;20456;-71
2024/02/04 08:02:57;;;;;;;0.70;0.60;;;8.40;91.00;;;7.72;90.99;98708.75;5067239;28;20479;-79
2024/02/04 08:05:28;;;;;;;0.80;0.40;;;8.40;90.80;;;7.76;90.55;98685.84;5079426;28;20542;-72
2024/02/04 08:07:57;;;;;;;1.13;0.40;;;8.40;90.80;;;7.84;90.23;98696.53;5058485;28;20503;-69
2024/02/04 08:10:26;;;;;;;0.50;0.50;;;8.50;90.60;;;7.80;90.18;98692.53;5079102;28;20452;-72
2024/02/04 08:12:53;;;;;;;0.60;0.50;;;8.50;90.50;;;7.77;90.05;98700.97;5062255;28;20458;-73
2024/02/04 08:15:21;;;;;;;0.50;0.50;;;8.50;90.50;;;7.87;90.15;98698.03;5064133;28;20711;-74
2024/02/04 08:17:49;;;;;;;0.77;0.53;;;8.50;90.50;;;7.76;90.03;98694.75;5059475;28;20462;-72
2024/02/04 08:20:18;;;;;;;0.70;0.60;;;8.50;90.50;;;7.93;89.23;98700.81;5063730;28;20460;-72
2024/02/04 08:22:46;;;;;;;0.50;0.40;;;8.60;90.40;;;8.00;88.40;98708.19;5067342;28;20518;-72
2024/02/04 08:25:13;;;;;;;0.50;0.50;;;8.60;90.20;;;7.90;89.18;98706.56;5066655;28;20453;-72
2024/02/04 08:27:42;;;;;;;0.60;0.50;;;8.60;90.20;;;7.90;88.79;98706.56;5083623;28;20448;-75
2024/02/04 08:30:11;;;;;;;0.97;0.60;;;8.60;90.10;;;7.83;89.81;98721.78;5057937;28;20455;-74
2024/02/04 08:32:38;;;;;;;0.73;0.50;;;8.50;90.10;;;7.92;89.56;98709.91;5064443;28;20433;-72
2024/02/04 08:35:07;;;;;;;0.70;0.50;;;8.60;90.20;;;7.89;88.59;98699.53;5079347;28;20946;-71
2024/02/04 08:37:35;;;;;;;0.80;0.60;;;8.60;90.00;;;8.00;88.14;98705.50;5072364;28;20441;-71
2024/02/04 08:40:04;;;;;;;0.93;0.40;;;8.60;90.00;;;8.03;88.43;98689.78;5068751;28;20546;-70
2024/02/04 08:42:31;;;;;;;0.83;0.60;;;8.70;90.00;;;8.13;87.80;98697.63;5061292;28;20472;-74
2024/02/04 08:45:03;;;;;;;1.00;0.60;;;8.70;89.80;;;7.98;88.45;98705.66;5066051;28;20514;-69
2024/02/04 08:47:30;;;;;;;1.20;0.70;;;8.70;89.80;;;8.04;87.82;98706.78;5091780;28;20890;-70
2024/02/04 08:49:59;;;;;;;1.33;0.67;;;8.70;89.70;;;8.10;87.70;98706.06;5066964;28;20505;-70
2024/02/04 08:52:26;;;;;;;2.00;0.60;;;8.70;89.80;;;8.04;88.30;98702.25;5061446;28;20446;-73
2024/02/04 08:54:53;;;;;;;0.63;0.63;;;8.80;89.70;;;8.12;88.38;98698.66;5071519;28;20447;-79
2024/02/04 08:57:21;;;;;;;0.90;0.70;;;8.80;89.30;;;8.01;87.62;98699.09;5064289;28;20445;-78
2024/02/04 08:59:48;;;;;;;0.63;0.53;;;8.80;89.20;;;7.99;87.82;98726.16;5068334;28;21008;-74
2024/02/04 09:02:17;;;;;;;1.07;0.97;;;8.80;89.00;;;8.11;88.50;98729.25;5063625;28;21039;-73
2024/02/04 09:04:45;;;;;;;0.90;0.80;;;8.80;89.10;;;8.08;87.65;98724.25;5076181;28;20884;-73
2024/02/04 09:07:12;;;;;;;1.57;0.70;;;8.80;88.90;;;8.09;87.48;98717.84;5059153;28;21257;-72
2024/02/04 09:09:39;;;;;;;1.20;0.83;;;8.80;88.90;;;8.10;87.41;98716.81;5061491;28;20473;-75
2024/02/04 09:12:07;;;;;;;1.20;0.80;;;8.80;88.70;;;8.13;87.01;98711.09;5064703;28;20477;-72
2024/02/04 09:14:35;;;;;;;0.70;0.70;;;8.80;88.80;;;8.20;86.88;98717.41;5058661;28;20983;-78
2024/02/04 09:17:04;;;;;;;0.70;0.60;;;8.80;88.60;;;8.16;86.57;98713.41;5048730;28;21021;-73
2024/02/04 09:19:33;;;;;;;1.50;0.90;;;8.90;88.30;;;8.22;86.13;98715.38;5061784;28;20460;-79
2024/02/04 09:22:02;;;;;;;1.17;0.53;;;8.90;88.40;;;8.38;85.58;98718.91;5078905;28;21018;-79
2024/02/04 09:24:31;;;;;;;0.50;0.50;;;9.00;88.10;;;8.30;85.07;98719.00;5057951;28;20458;-78
2024/02/04 09:26:58;;;;;;;0.70;0.57;;;9.00;87.80;;;8.36;84.56;98694.88;5058840;28;20467;-78
2024/02/04 09:29:25;;;;;;;1.10;0.60;;;9.00;87.60;;;8.29;84.94;98687.72;5062343;28;20493;-80
2024/02/04 09:31:53;;;;;;;0.80;0.70;;;9.00;87.50;;;8.37;85.34;98706.47;5071494;28;20478;-78
2024/02/04 09:34:21;;;;;;;0.80;0.67;;;9.00;87.60;;;8.38;85.05;98693.84;5060329;28;20465;-76
2024/02/04 09:36:50;;;;;;;0.90;0.90;;;9.00;87.40;;;8.49;84.12;98688.84;5061245;28;20460;-78
2024/02/04 09:39:18;;;;;;;0.80;0.60;;;9.10;87.90;;;8.19;83.75;98613.44;5080596;28;20548;-80
2024/02/04 09:41:46;;;;;;;0.83;0.60;;;9.20;87.20;;;8.45;83.99;98676.78;5061713;28;20477;-70
2024/02/04 09:44:13;;;;;;;1.43;0.70;;;9.20;86.90;;;8.43;84.38;98704.91;5065279;28;20460;-69
2024/02/04 09:46:41;;;;;;;0.63;0.50;;;9.20;86.90;;;8.55;84.59;98681.06;5062283;28;20947;-70
2024/02/04 09:49:10;;;;;;;0.60;0.50;;;9.20;86.90;;;8.42;84.14;98698.69;5058769;28;20468;-70
2024/02/04 09:51:37;;;;;;;0.90;0.63;;;9.20;86.80;;;8.27;85.33;98695.97;5061168;28;20506;-71
2024/02/04 09:54:10;;;;;;;0.73;0.60;;;9.20;87.00;;;8.44;84.58;98675.09;5064323;28;20454;-76
2024/02/04 09:56:39;;;;;;;0.77;0.60;;;9.20;87.00;;;8.54;84.26;98692.84;5062213;28;20453;-75
2024/02/04 09:59:08;;;;;;;0.60;0.47;;;9.30;87.00;;;8.82;83.18;98681.41;5081886;28;20530;-73
2024/02/04 10:01:37;;;;;;;1.00;0.50;;;9.40;86.90;;;8.74;82.53;98695.81;5065181;28;20463;-76
2024/02/04 10:04:05;;;;;;;0.80;0.50;;;9.60;86.30;;;8.78;82.81;98697.97;5064146;28;20573;-76
2024/02/04 10:06:32;;;;;;;0.83;0.70;;;9.60;86.10;;;8.86;82.50;98696.19;5069618;28;20450;-79
2024/02/04 10:09:00;;;;;;;1.27;0.70;;;9.60;86.10;;;8.87;82.78;98681.69;5058569;28;20528;-81
2024/02/04 10:11:28;;;;;;;1.10;0.70;;;9.60;86.00;;;8.86;81.88;98688.94;5070017;28;20463;-79
2024/02/04 10:13:56;;;;;;;0.50;0.50;;;9.60;85.70;;;8.94;80.93;98677.22;5065575;28;20459;-74
2024/02/04 10:16:24;;;;;;;0.50;0.50;;;9.70;85.60;;;9.07;80.63;98680.09;5065651;28;20455;-80
2024/02/04 10:18:53;;;;;;;3.50;0.57;;;9.80;85.40;;;8.84;81.38;98653.28;5067376;28;20449;-82
2024/02/04 10:21:23;;;;;;;1.00;0.50;;;9.70;85.40;;;8.92;81.36;98679.28;5067382;28;20464;-79
2024/02/04 10:23:52;;;;;;;0.50;0.50;;;9.70;85.20;;;8.90;81.94;98678.63;5062981;28;20446;-80
2024/02/04 10:26:20;;;;;;;0.97;0.60;;;9.60;85.30;;;8.95;80.91;98684.28;5057724;28;20442;-78
2024/02/04 10:28:49;;;;;;;0.60;0.43;;;9.70;85.20;;;8.91;81.56;98680.31;5060501;28;20471;-80
2024/02/04 10:31:17;;;;;;;0.73;0.37;;;9.60;85.40;;;8.85;81.93;98676.50;5063607;28;20985;-83
2024/02/04 10:33:45;;;;;;;0.63;0.37;;;9.60;85.40;;;8.76;81.76;98659.59;5068513;28;20944;-81
2024/02/04 10:36:12;;;;;;;0.50;0.40;;;9.60;85.30;;;8.89;81.39;98666.19;5073791;28;20450;-81